createdAt,value
2022-11-27T00:00:57.288Z,38.40
2022-11-27T00:01:57.276Z,36.20
2022-11-27T00:02:57.363Z,39.90
2022-11-27T00:03:57.294Z,38.40
2022-11-27T00:04:57.240Z,39.20
2022-11-27T00:05:57.251Z,40.30
2022-11-27T00:06:57.223Z,35.20
2022-11-27T00:07:57.263Z,38.60
2022-11-27T00:08:57.211Z,41.10
2022-11-27T00:09:57.191Z,42.10
2022-11-27T00:10:57.194Z,36.20
2022-11-27T00:11:57.173Z,42.70
2022-11-27T00:12:57.154Z,43.30
2022-11-27T00:13:57.151Z,41.20
2022-11-27T00:14:57.134Z,37.20
2022-11-27T00:15:57.197Z,45.20
2022-11-27T00:16:57.113Z,39.30
2022-11-27T00:17:57.113Z,34.40
2022-11-27T00:18:57.095Z,42.90
2022-11-27T00:19:57.085Z,39.30
2022-11-27T00:20:57.095Z,41.80
2022-11-27T00:21:57.072Z,34.80
2022-11-27T00:22:57.054Z,41.80
2022-11-27T00:23:57.047Z,45.40
2022-11-27T00:24:57.034Z,37.60
2022-11-27T00:25:57.045Z,38.00
2022-11-27T00:26:57.016Z,44.00
2022-11-27T00:27:57.013Z,39.60
2022-11-27T00:28:56.994Z,42.90
2022-11-27T00:29:56.996Z,39.10
2022-11-27T00:30:57.032Z,42.70
2022-11-27T00:31:56.972Z,37.30
2022-11-27T00:32:56.965Z,39.30
2022-11-27T00:33:56.946Z,33.90
2022-11-27T00:34:56.937Z,46.70
2022-11-27T00:35:56.951Z,39.60
2022-11-27T00:36:56.909Z,34.50
2022-11-27T00:37:56.910Z,38.50
2022-11-27T00:38:56.893Z,39.40
2022-11-27T00:39:56.889Z,39.70
2022-11-27T00:40:56.892Z,35.70
2022-11-27T00:41:56.882Z,34.30
2022-11-27T00:42:56.852Z,36.80
2022-11-27T00:43:56.853Z,36.20
2022-11-27T00:44:56.831Z,40.90
2022-11-27T00:45:56.926Z,38.80
2022-11-27T00:46:56.857Z,38.20
2022-11-27T00:47:56.810Z,33.70
2022-11-27T00:48:56.790Z,35.80
2022-11-27T00:49:56.782Z,36.40
2022-11-27T00:50:56.802Z,40.10
2022-11-27T00:51:56.770Z,37.80
2022-11-27T00:52:56.753Z,34.30
2022-11-27T00:53:56.743Z,37.00
2022-11-27T00:54:56.732Z,35.20
2022-11-27T00:55:56.743Z,37.10
2022-11-27T00:56:56.713Z,47.80
2022-11-27T00:57:56.706Z,39.80
2022-11-27T00:58:56.699Z,41.00
2022-11-27T00:59:56.694Z,38.00
2022-11-27T01:00:56.693Z,33.70
2022-11-27T01:01:56.707Z,44.60
2022-11-27T01:02:56.705Z,35.40
2022-11-27T01:03:56.678Z,35.50
2022-11-27T01:04:56.630Z,36.60
2022-11-27T01:05:56.646Z,39.70
2022-11-27T01:06:56.623Z,37.80
2022-11-27T01:07:56.691Z,40.10
2022-11-27T01:08:56.587Z,36.60
2022-11-27T01:09:56.585Z,36.00
2022-11-27T01:10:56.598Z,36.90
2022-11-27T01:11:56.571Z,34.80
2022-11-27T01:12:56.548Z,38.30
2022-11-27T01:13:56.548Z,39.60
2022-11-27T01:14:56.529Z,38.00
2022-11-27T01:15:56.582Z,38.00
2022-11-27T01:16:56.520Z,34.10
2022-11-27T01:17:56.509Z,32.80
2022-11-27T01:18:56.489Z,35.00
2022-11-27T01:19:56.488Z,37.30
2022-11-27T01:20:56.486Z,39.10
2022-11-27T01:21:56.461Z,36.80
2022-11-27T01:22:56.450Z,35.30
2022-11-27T01:23:56.460Z,32.50
2022-11-27T01:24:56.432Z,40.10
2022-11-27T01:25:56.441Z,34.50
2022-11-27T01:26:56.410Z,41.50
2022-11-27T01:27:56.403Z,34.80
2022-11-27T01:28:56.389Z,37.60
2022-11-27T01:29:56.393Z,35.30
2022-11-27T01:30:56.409Z,39.80
2022-11-27T01:31:56.364Z,35.00
2022-11-27T01:32:56.355Z,43.40
2022-11-27T01:33:56.345Z,34.20
2022-11-27T01:34:56.328Z,39.00
2022-11-27T01:35:56.336Z,31.50
2022-11-27T01:36:56.315Z,41.50
2022-11-27T01:37:56.303Z,36.00
2022-11-27T01:38:56.291Z,46.00
2022-11-27T01:39:56.288Z,33.90
2022-11-27T01:40:56.343Z,39.10
2022-11-27T01:41:56.258Z,37.60
2022-11-27T01:42:56.250Z,35.20
2022-11-27T01:43:56.250Z,30.50
2022-11-27T01:44:56.228Z,35.80
2022-11-27T01:45:56.245Z,39.30
2022-11-27T01:46:56.303Z,36.10
2022-11-27T01:47:56.207Z,34.40
2022-11-27T01:48:56.197Z,35.60
2022-11-27T01:49:56.179Z,33.70
2022-11-27T01:50:56.179Z,41.60
2022-11-27T01:51:56.160Z,33.80
2022-11-27T01:52:56.148Z,32.50
2022-11-27T01:53:56.139Z,32.40
2022-11-27T01:54:56.141Z,38.40
2022-11-27T01:55:56.152Z,35.70
2022-11-27T01:56:56.106Z,35.50
2022-11-27T01:57:56.101Z,35.80
2022-11-27T01:58:56.090Z,33.40
2022-11-27T01:59:56.083Z,42.50
2022-11-27T02:00:56.085Z,34.20
2022-11-27T02:01:56.198Z,31.30
2022-11-27T02:02:56.107Z,34.20
2022-11-27T02:03:56.045Z,29.80
2022-11-27T02:04:56.026Z,35.20
2022-11-27T02:05:56.033Z,31.50
2022-11-27T02:06:56.004Z,32.60
2022-11-27T02:07:56.050Z,34.50
2022-11-27T02:08:55.985Z,31.40
2022-11-27T02:09:55.974Z,30.60
2022-11-27T02:10:55.986Z,38.90
2022-11-27T02:11:55.967Z,31.80
2022-11-27T02:12:55.944Z,33.70
2022-11-27T02:13:55.935Z,30.00
2022-11-27T02:14:55.925Z,31.10
2022-11-27T02:15:55.990Z,32.40
2022-11-27T02:16:55.911Z,32.40
2022-11-27T02:17:55.926Z,30.60
2022-11-27T02:18:55.884Z,33.40
2022-11-27T02:19:55.878Z,33.50
2022-11-27T02:20:55.864Z,36.80
2022-11-27T02:21:55.879Z,27.60
2022-11-27T02:22:55.845Z,26.70
2022-11-27T02:23:55.838Z,29.90
2022-11-27T02:24:55.823Z,27.90
2022-11-27T02:25:55.818Z,32.00
2022-11-27T02:26:55.819Z,30.50
2022-11-27T02:27:55.799Z,36.60
2022-11-27T02:28:55.788Z,27.40
2022-11-27T02:29:55.780Z,33.40
2022-11-27T02:30:55.796Z,30.10
2022-11-27T02:31:55.795Z,35.70
2022-11-27T02:32:55.745Z,26.20
2022-11-27T02:33:55.741Z,31.10
2022-11-27T02:34:55.722Z,28.30
2022-11-27T02:35:55.723Z,28.20
2022-11-27T02:36:55.721Z,39.90
2022-11-27T02:37:55.702Z,29.70
2022-11-27T02:38:55.682Z,32.90
2022-11-27T02:39:55.672Z,41.60
2022-11-27T02:40:55.673Z,35.60
2022-11-27T02:41:55.679Z,32.40
2022-11-27T02:42:55.642Z,27.50
2022-11-27T02:43:55.641Z,34.20
2022-11-27T02:44:55.624Z,30.90
2022-11-27T02:45:55.615Z,30.40
2022-11-27T02:46:55.648Z,30.80
2022-11-27T02:47:55.595Z,36.00
2022-11-27T02:48:55.585Z,33.60
2022-11-27T02:49:55.585Z,32.20
2022-11-27T02:50:55.568Z,33.30
2022-11-27T02:51:55.575Z,29.20
2022-11-27T02:52:55.543Z,33.30
2022-11-27T02:53:55.538Z,38.90
2022-11-27T02:54:55.524Z,29.50
2022-11-27T02:55:55.518Z,36.60
2022-11-27T02:56:55.517Z,35.80
2022-11-27T02:57:55.497Z,32.30
2022-11-27T02:58:55.478Z,34.00
2022-11-27T02:59:55.478Z,28.70
2022-11-27T03:00:55.460Z,35.90
2022-11-27T03:01:55.516Z,41.30
2022-11-27T03:02:55.489Z,32.50
2022-11-27T03:03:55.438Z,30.60
2022-11-27T03:04:55.419Z,30.30
2022-11-27T03:05:55.419Z,31.40
2022-11-27T03:06:55.420Z,28.50
2022-11-27T03:07:55.424Z,38.40
2022-11-27T03:08:55.379Z,33.50
2022-11-27T03:09:55.371Z,32.80
2022-11-27T03:10:55.360Z,32.20
2022-11-27T03:11:55.381Z,35.20
2022-11-27T03:12:55.343Z,36.30
2022-11-27T03:13:55.332Z,33.90
2022-11-27T03:14:55.321Z,28.90
2022-11-27T03:15:55.358Z,31.30
2022-11-27T03:16:55.325Z,30.30
2022-11-27T03:17:55.292Z,31.40
2022-11-27T03:18:55.283Z,35.60
2022-11-27T03:19:55.273Z,32.20
2022-11-27T03:20:55.263Z,34.30
2022-11-27T03:21:55.271Z,33.00
2022-11-27T03:22:55.233Z,29.50
2022-11-27T03:23:55.234Z,39.70
2022-11-27T03:24:55.214Z,34.10
2022-11-27T03:25:55.215Z,35.40
2022-11-27T03:26:55.225Z,32.60
2022-11-27T03:27:55.195Z,32.40
2022-11-27T03:28:55.176Z,35.10
2022-11-27T03:29:55.179Z,32.90
2022-11-27T03:30:55.188Z,34.80
2022-11-27T03:31:55.168Z,39.40
2022-11-27T03:32:55.137Z,34.20
2022-11-27T03:33:55.136Z,40.20
2022-11-27T03:34:55.130Z,35.00
2022-11-27T03:35:55.127Z,38.10
2022-11-27T03:36:55.119Z,40.10
2022-11-27T03:37:55.090Z,53.70
2022-11-27T03:38:55.079Z,56.70
2022-11-27T03:39:55.068Z,44.20
2022-11-27T03:40:55.061Z,36.70
2022-11-27T03:41:55.060Z,37.70
2022-11-27T03:42:55.041Z,35.40
2022-11-27T03:43:55.038Z,39.20
2022-11-27T03:44:55.027Z,35.90
2022-11-27T03:45:55.016Z,34.60
2022-11-27T03:46:55.084Z,35.40
2022-11-27T03:47:55.109Z,38.60
2022-11-27T03:48:54.994Z,41.10
2022-11-27T03:49:54.963Z,41.70
2022-11-27T03:50:54.962Z,33.60
2022-11-27T03:51:54.983Z,37.50
2022-11-27T03:52:54.941Z,35.40
2022-11-27T03:53:54.934Z,46.20
2022-11-27T03:54:54.923Z,37.50
2022-11-27T03:55:54.913Z,36.20
2022-11-27T03:56:54.914Z,39.50
2022-11-27T03:57:54.885Z,34.30
2022-11-27T03:58:54.884Z,37.20
2022-11-27T03:59:54.865Z,35.70
2022-11-27T04:00:54.863Z,35.30
2022-11-27T04:01:54.916Z,36.20
2022-11-27T04:02:54.845Z,40.40
2022-11-27T04:03:54.879Z,40.50
2022-11-27T04:04:54.815Z,32.80
2022-11-27T04:05:54.814Z,40.40
2022-11-27T04:06:54.820Z,34.00
2022-11-27T04:07:54.851Z,39.00
2022-11-27T04:08:54.778Z,37.90
2022-11-27T04:09:54.767Z,35.30
2022-11-27T04:10:54.758Z,32.90
2022-11-27T04:11:54.761Z,34.00
2022-11-27T04:12:54.757Z,33.40
2022-11-27T04:13:54.727Z,30.50
2022-11-27T04:14:54.719Z,39.80
2022-11-27T04:15:54.738Z,28.80
2022-11-27T04:16:54.726Z,34.10
2022-11-27T04:17:54.681Z,36.20
2022-11-27T04:18:54.684Z,37.80
2022-11-27T04:19:54.661Z,32.60
2022-11-27T04:20:54.660Z,37.40
2022-11-27T04:21:54.662Z,37.00
2022-11-27T04:22:54.660Z,34.90
2022-11-27T04:23:54.629Z,37.60
2022-11-27T04:24:54.620Z,35.80
2022-11-27T04:25:54.625Z,33.10
2022-11-27T04:26:54.606Z,39.00
2022-11-27T04:27:54.611Z,35.50
2022-11-27T04:28:54.579Z,30.70
2022-11-27T04:29:54.569Z,32.20
2022-11-27T04:30:54.565Z,32.90
2022-11-27T04:31:54.580Z,31.30
2022-11-27T04:32:54.553Z,33.80
2022-11-27T04:33:54.524Z,33.60
2022-11-27T04:34:54.523Z,31.20
2022-11-27T04:35:54.504Z,32.80
2022-11-27T04:36:54.496Z,30.50
2022-11-27T04:37:54.496Z,28.60
2022-11-27T04:38:54.475Z,34.90
2022-11-27T04:39:54.476Z,31.50
2022-11-27T04:40:54.457Z,31.00
2022-11-27T04:41:54.442Z,27.30
2022-11-27T04:42:54.459Z,29.40
2022-11-27T04:43:54.427Z,27.90
2022-11-27T04:44:54.416Z,29.60
2022-11-27T04:45:54.405Z,30.10
2022-11-27T04:46:54.497Z,32.90
2022-11-27T04:47:54.397Z,26.90
2022-11-27T04:48:54.387Z,29.80
2022-11-27T04:49:54.364Z,36.30
2022-11-27T04:50:54.357Z,29.20
2022-11-27T04:51:54.346Z,31.00
2022-11-27T04:52:54.350Z,35.10
2022-11-27T04:53:54.320Z,29.20
2022-11-27T04:54:59.809Z,28.80
2022-11-27T04:55:55.301Z,31.40
2022-11-27T04:56:54.299Z,26.50
2022-11-27T04:57:54.299Z,31.20
2022-11-27T04:58:54.271Z,33.30
2022-11-27T04:59:54.283Z,31.30
2022-11-27T05:00:54.305Z,32.10
2022-11-27T05:01:54.242Z,30.40
2022-11-27T05:02:54.349Z,27.20
2022-11-27T05:03:54.221Z,25.60
2022-11-27T05:04:54.225Z,31.00
2022-11-27T05:05:54.203Z,28.80
2022-11-27T05:06:54.193Z,32.80
2022-11-27T05:07:54.244Z,27.90
2022-11-27T05:08:54.182Z,25.60
2022-11-27T05:09:54.161Z,36.50
2022-11-27T05:10:54.156Z,30.30
2022-11-27T05:11:54.143Z,28.00
2022-11-27T05:12:54.153Z,30.70
2022-11-27T05:13:54.122Z,27.20
2022-11-27T05:14:54.115Z,30.10
2022-11-27T05:15:54.126Z,27.60
2022-11-27T05:16:54.095Z,25.20
2022-11-27T05:17:54.112Z,27.10
2022-11-27T05:18:54.076Z,29.00
2022-11-27T05:19:54.065Z,33.90
2022-11-27T05:20:54.056Z,35.60
2022-11-27T05:21:54.041Z,29.90
2022-11-27T05:22:54.055Z,28.90
2022-11-27T05:23:54.020Z,32.50
2022-11-27T05:24:54.007Z,33.20
2022-11-27T05:25:54.017Z,28.80
2022-11-27T05:26:53.996Z,28.10
2022-11-27T05:27:53.998Z,28.60
2022-11-27T05:28:53.976Z,26.00
2022-11-27T05:29:53.958Z,35.00
2022-11-27T05:30:54.210Z,29.70
2022-11-27T05:31:53.994Z,28.30
2022-11-27T05:32:53.949Z,30.40
2022-11-27T05:33:53.920Z,27.50
2022-11-27T05:34:53.919Z,29.00
2022-11-27T05:35:53.899Z,27.90
2022-11-27T05:36:53.890Z,27.60
2022-11-27T05:37:53.901Z,31.40
2022-11-27T05:38:53.879Z,33.00
2022-11-27T05:39:53.860Z,32.20
2022-11-27T05:40:53.851Z,37.60
2022-11-27T05:41:53.839Z,31.70
2022-11-27T05:42:53.849Z,31.80
2022-11-27T05:43:53.821Z,32.20
2022-11-27T05:44:58.022Z,34.30
2022-11-27T05:45:53.800Z,32.60
2022-11-27T05:46:53.880Z,30.60
2022-11-27T05:47:53.794Z,30.70
2022-11-27T05:48:53.774Z,37.30
2022-11-27T05:49:53.755Z,34.60
2022-11-27T05:50:53.754Z,38.90
2022-11-27T05:51:53.735Z,30.30
2022-11-27T05:52:53.753Z,30.50
2022-11-27T05:53:53.724Z,31.00
2022-11-27T05:54:53.725Z,32.70
2022-11-27T05:55:53.696Z,33.50
2022-11-27T05:56:53.694Z,28.90
2022-11-27T05:57:53.696Z,27.20
2022-11-27T05:58:53.677Z,28.30
2022-11-27T05:59:53.657Z,26.40
2022-11-27T06:00:53.647Z,30.40
2022-11-27T06:01:53.669Z,32.40
2022-11-27T06:02:53.776Z,29.20
2022-11-27T06:03:53.618Z,32.90
2022-11-27T06:04:53.618Z,32.30
2022-11-27T06:05:53.596Z,29.30
2022-11-27T06:06:53.596Z,36.20
2022-11-27T06:07:53.658Z,34.40
2022-11-27T06:08:53.568Z,32.40
2022-11-27T06:09:53.557Z,33.40
2022-11-27T06:10:53.549Z,38.90
2022-11-27T06:11:53.542Z,33.70
2022-11-27T06:12:53.549Z,27.90
2022-11-27T06:13:53.538Z,27.60
2022-11-27T06:14:53.518Z,30.00
2022-11-27T06:15:53.498Z,28.60
2022-11-27T06:16:53.549Z,27.70
2022-11-27T06:17:53.490Z,30.40
2022-11-27T06:18:53.470Z,27.30
2022-11-27T06:19:53.452Z,24.10
2022-11-27T06:20:53.469Z,29.60
2022-11-27T06:21:53.440Z,32.90
2022-11-27T06:22:53.444Z,32.70
2022-11-27T06:23:53.413Z,30.10
2022-11-27T06:24:53.403Z,28.50
2022-11-27T06:25:53.393Z,31.30
2022-11-27T06:26:53.403Z,31.40
2022-11-27T06:27:53.397Z,29.40
2022-11-27T06:28:53.371Z,30.70
2022-11-27T06:29:53.365Z,29.90
2022-11-27T06:30:53.344Z,30.90
2022-11-27T06:31:53.476Z,34.00
2022-11-27T06:32:53.346Z,29.10
2022-11-27T06:33:53.315Z,27.40
2022-11-27T06:34:53.266Z,31.50
2022-11-27T06:35:53.237Z,28.70
2022-11-27T06:36:53.338Z,33.60
2022-11-27T06:37:53.296Z,30.80
2022-11-27T06:38:53.286Z,29.50
2022-11-27T06:39:53.264Z,32.60
2022-11-27T06:40:53.209Z,27.20
2022-11-27T06:41:53.237Z,37.30
2022-11-27T06:42:53.208Z,31.30
2022-11-27T06:43:53.165Z,32.80
2022-11-27T06:44:53.157Z,32.10
2022-11-27T06:45:53.187Z,29.30
2022-11-27T06:46:53.130Z,28.90
2022-11-27T06:47:53.139Z,36.60
2022-11-27T06:48:53.141Z,30.60
2022-11-27T06:49:53.101Z,33.10
2022-11-27T06:50:53.095Z,31.60
2022-11-27T06:51:53.082Z,30.90
2022-11-27T06:52:53.090Z,33.60
2022-11-27T06:53:53.061Z,36.90
2022-11-27T06:54:53.050Z,34.60
2022-11-27T06:55:53.042Z,28.20
2022-11-27T06:56:53.036Z,33.70
2022-11-27T06:57:53.032Z,35.70
2022-11-27T06:58:53.012Z,36.60
2022-11-27T06:59:53.005Z,34.90
2022-11-27T07:00:53.060Z,36.40
2022-11-27T07:01:53.063Z,37.90
2022-11-27T07:02:52.991Z,39.80
2022-11-27T07:03:52.965Z,41.40
2022-11-27T07:04:52.953Z,36.80
2022-11-27T07:05:52.944Z,34.80
2022-11-27T07:06:52.954Z,34.50
2022-11-27T07:07:53.023Z,32.70
2022-11-27T07:08:52.915Z,39.30
2022-11-27T07:09:52.903Z,34.40
2022-11-27T07:10:52.916Z,39.00
2022-11-27T07:11:52.897Z,36.00
2022-11-27T07:12:52.886Z,34.00
2022-11-27T07:13:52.856Z,36.90
2022-11-27T07:14:52.856Z,38.70
2022-11-27T07:15:52.847Z,41.80
2022-11-27T07:16:52.879Z,34.40
2022-11-27T07:17:52.837Z,39.30
2022-11-27T07:18:52.814Z,34.60
2022-11-27T07:19:52.806Z,36.20
2022-11-27T07:20:56.416Z,36.70
2022-11-27T07:21:52.779Z,37.40
2022-11-27T07:22:52.797Z,39.60
2022-11-27T07:23:52.760Z,39.90
2022-11-27T07:24:52.780Z,38.10
2022-11-27T07:25:52.737Z,41.70
2022-11-27T07:26:52.730Z,37.90
2022-11-27T07:27:52.731Z,36.90
2022-11-27T07:28:52.719Z,32.30
2022-11-27T07:29:52.703Z,35.90
2022-11-27T07:30:52.692Z,37.50
2022-11-27T07:31:52.757Z,37.20
2022-11-27T07:32:52.697Z,41.30
2022-11-27T07:33:52.663Z,43.80
2022-11-27T07:34:52.651Z,37.40
2022-11-27T07:35:52.642Z,42.60
2022-11-27T07:36:52.631Z,38.80
2022-11-27T07:37:52.613Z,43.40
2022-11-27T07:38:52.634Z,38.50
2022-11-27T07:40:02.327Z,34.40
2022-11-27T07:40:54.026Z,37.80
2022-11-27T07:41:52.574Z,36.60
2022-11-27T07:42:52.574Z,39.50
2022-11-27T07:43:52.577Z,41.60
2022-11-27T07:44:52.554Z,35.90
2022-11-27T07:45:52.607Z,38.80
2022-11-27T07:46:52.539Z,37.20
2022-11-27T07:47:52.522Z,39.30
2022-11-27T07:48:52.526Z,52.00
2022-11-27T07:49:52.495Z,35.90
2022-11-27T07:50:52.494Z,43.60
2022-11-27T07:51:52.476Z,39.70
2022-11-27T07:52:52.464Z,41.20
2022-11-27T07:53:52.482Z,37.10
2022-11-27T07:54:52.466Z,42.80
2022-11-27T07:55:52.436Z,38.10
2022-11-27T07:56:52.435Z,38.00
2022-11-27T07:57:52.419Z,39.80
2022-11-27T07:58:52.450Z,39.50
2022-11-27T07:59:52.399Z,33.30
2022-11-27T08:00:52.410Z,36.00
2022-11-27T08:01:52.379Z,37.90
2022-11-27T08:02:52.362Z,43.10
2022-11-27T08:03:52.378Z,35.50
2022-11-27T08:04:52.401Z,36.10
2022-11-27T08:05:52.347Z,35.80
2022-11-27T08:06:52.329Z,36.90
2022-11-27T08:07:52.451Z,34.80
2022-11-27T08:08:52.320Z,38.30
2022-11-27T08:09:52.301Z,39.30
2022-11-27T08:10:52.291Z,36.00
2022-11-27T08:11:52.279Z,35.80
2022-11-27T08:12:52.262Z,39.40
2022-11-27T08:13:52.272Z,34.40
2022-11-27T08:14:52.242Z,37.60
2022-11-27T08:15:52.241Z,36.10
2022-11-27T08:16:52.267Z,34.00
2022-11-27T08:17:52.217Z,38.40
2022-11-27T08:18:52.222Z,32.40
2022-11-27T08:19:52.218Z,42.00
2022-11-27T08:20:52.184Z,36.10
2022-11-27T08:21:52.177Z,31.50
2022-11-27T08:22:52.163Z,34.50
2022-11-27T08:23:52.176Z,38.10
2022-11-27T08:24:52.148Z,31.40
2022-11-27T08:25:52.136Z,36.10
2022-11-27T08:26:52.153Z,35.10
2022-11-27T08:27:52.118Z,36.40
2022-11-27T08:28:52.124Z,33.60
2022-11-27T08:29:52.097Z,36.10
2022-11-27T08:30:52.077Z,35.10
2022-11-27T08:31:52.138Z,29.60
2022-11-27T08:32:52.059Z,36.00
2022-11-27T08:33:52.076Z,34.40
2022-11-27T08:34:52.040Z,32.90
2022-11-27T08:35:52.039Z,34.40
2022-11-27T08:36:52.019Z,40.10
2022-11-27T08:37:52.025Z,38.40
2022-11-27T08:38:52.018Z,34.00
2022-11-27T08:39:51.998Z,32.60
2022-11-27T08:40:51.981Z,36.40
2022-11-27T08:41:51.978Z,37.70
2022-11-27T08:42:51.962Z,34.80
2022-11-27T08:43:51.971Z,38.10
2022-11-27T08:44:51.941Z,37.70
2022-11-27T08:45:51.971Z,35.10
2022-11-27T08:46:51.922Z,35.10
2022-11-27T08:47:51.922Z,33.70
2022-11-27T08:48:51.919Z,36.00
2022-11-27T08:49:51.905Z,37.30
2022-11-27T08:50:51.882Z,39.20
2022-11-27T08:51:51.884Z,36.30
2022-11-27T08:52:51.864Z,36.50
2022-11-27T08:53:51.872Z,30.40
2022-11-27T08:54:56.063Z,31.80
2022-11-27T08:55:52.832Z,32.00
2022-11-27T08:56:51.815Z,30.60
2022-11-27T08:57:51.814Z,36.30
2022-11-27T08:58:51.817Z,35.20
2022-11-27T08:59:51.795Z,53.90
2022-11-27T09:00:51.792Z,32.80
2022-11-27T09:01:51.775Z,36.10
2022-11-27T09:02:51.756Z,31.00
2022-11-27T09:03:51.832Z,33.70
2022-11-27T09:04:51.746Z,36.40
2022-11-27T09:05:51.737Z,31.70
2022-11-27T09:06:56.802Z,30.70
2022-11-27T09:07:52.790Z,31.70
2022-11-27T09:08:51.716Z,30.50
2022-11-27T09:09:51.692Z,34.60
2022-11-27T09:10:51.680Z,30.60
2022-11-27T09:11:51.679Z,36.40
2022-11-27T09:12:51.658Z,37.10
2022-11-27T09:13:51.668Z,33.00
2022-11-27T09:14:51.645Z,30.80
2022-11-27T09:15:51.628Z,39.70
2022-11-27T09:16:51.642Z,36.30
2022-11-27T09:17:51.610Z,39.10
2022-11-27T09:18:51.662Z,34.40
2022-11-27T09:19:51.620Z,29.60
2022-11-27T09:20:51.581Z,34.70
2022-11-27T09:21:51.570Z,40.60
2022-11-27T09:22:51.554Z,35.80
2022-11-27T09:23:51.584Z,34.70
2022-11-27T09:24:51.532Z,32.50
2022-11-27T09:25:51.536Z,37.90
2022-11-27T09:26:51.522Z,33.30
2022-11-27T09:27:51.512Z,31.80
2022-11-27T09:28:51.514Z,35.80
2022-11-27T09:29:51.493Z,34.40
2022-11-27T09:30:51.481Z,30.40
2022-11-27T09:31:51.517Z,34.70
2022-11-27T09:32:51.472Z,35.60
2022-11-27T09:33:51.464Z,35.70
2022-11-27T09:34:51.463Z,34.40
2022-11-27T09:35:51.427Z,39.70
2022-11-27T09:36:51.435Z,34.60
2022-11-27T09:37:51.413Z,34.00
2022-11-27T09:38:51.414Z,32.00
2022-11-27T09:39:51.386Z,31.50
2022-11-27T09:40:51.377Z,27.50
2022-11-27T09:41:51.376Z,29.60
2022-11-27T09:42:51.358Z,33.70
2022-11-27T09:43:51.371Z,36.60
2022-11-27T09:44:51.336Z,33.40
2022-11-27T09:45:51.414Z,29.10
2022-11-27T09:46:51.328Z,25.10
2022-11-27T09:47:51.309Z,31.60
2022-11-27T09:48:51.321Z,31.30
2022-11-27T09:49:51.288Z,28.00
2022-11-27T09:50:51.303Z,30.00
2022-11-27T09:51:51.275Z,29.10
2022-11-27T09:52:51.260Z,29.10
2022-11-27T09:53:51.270Z,34.70
2022-11-27T09:54:52.734Z,33.50
2022-11-27T09:55:51.230Z,27.30
2022-11-27T09:56:51.211Z,28.70
2022-11-27T09:57:51.211Z,32.80
2022-11-27T09:58:51.211Z,29.20
2022-11-27T09:59:51.192Z,27.60
2022-11-27T10:00:51.182Z,28.40
2022-11-27T10:01:51.484Z,31.80
2022-11-27T10:02:51.283Z,29.90
2022-11-27T10:03:51.163Z,29.50
2022-11-27T10:05:13.060Z,32.50
2022-11-27T10:05:52.130Z,33.20
2022-11-27T10:06:51.113Z,26.30
2022-11-27T10:07:51.186Z,28.90
2022-11-27T10:08:51.114Z,31.20
2022-11-27T10:09:51.094Z,30.30
2022-11-27T10:10:51.072Z,29.90
2022-11-27T10:11:51.067Z,32.00
2022-11-27T10:12:51.055Z,32.20
2022-11-27T10:13:51.075Z,28.40
2022-11-27T10:14:51.035Z,30.60
2022-11-27T10:15:51.033Z,30.90
2022-11-27T10:16:51.111Z,29.10
2022-11-27T10:17:51.019Z,27.30
2022-11-27T10:18:51.019Z,29.70
2022-11-27T10:19:50.987Z,29.90
2022-11-27T10:20:50.968Z,25.80
2022-11-27T10:21:50.967Z,28.10
2022-11-27T10:22:50.950Z,31.00
2022-11-27T10:23:50.968Z,25.60
2022-11-27T10:24:50.930Z,32.00
2022-11-27T10:25:50.938Z,28.30
2022-11-27T10:26:50.909Z,26.60
2022-11-27T10:27:50.916Z,30.90
2022-11-27T10:28:50.909Z,28.60
2022-11-27T10:29:50.890Z,31.70
2022-11-27T10:30:50.876Z,27.00
2022-11-27T10:31:50.921Z,27.40
2022-11-27T10:32:55.457Z,27.70
2022-11-27T10:33:51.861Z,29.40
2022-11-27T10:34:50.829Z,25.90
2022-11-27T10:35:50.822Z,28.90
2022-11-27T10:36:50.813Z,28.10
2022-11-27T10:37:50.802Z,27.50
2022-11-27T10:38:50.792Z,31.00
2022-11-27T10:39:50.802Z,24.10
2022-11-27T10:40:50.771Z,25.80
2022-11-27T10:41:50.766Z,28.70
2022-11-27T10:42:50.749Z,27.00
2022-11-27T10:43:50.753Z,24.30
2022-11-27T10:44:50.744Z,35.10
2022-11-27T10:45:50.754Z,27.60
2022-11-27T10:46:50.704Z,24.50
2022-11-27T10:47:50.707Z,27.50
2022-11-27T10:48:50.687Z,23.60
2022-11-27T10:49:50.705Z,24.10
2022-11-27T10:50:50.666Z,24.10
2022-11-27T10:51:50.669Z,28.70
2022-11-27T10:52:52.529Z,29.20
2022-11-27T10:53:50.638Z,27.30
2022-11-27T10:54:50.645Z,23.00
2022-11-27T10:55:50.626Z,29.00
2022-11-27T10:56:50.607Z,25.50
2022-11-27T10:57:50.624Z,21.80
2022-11-27T10:58:50.588Z,26.30
2022-11-27T10:59:50.598Z,25.30
2022-11-27T11:00:50.592Z,25.10
2022-11-27T11:01:50.600Z,25.40
2022-11-27T11:02:50.551Z,24.40
2022-11-27T11:03:50.548Z,22.00
2022-11-27T11:05:09.070Z,24.00
2022-11-27T11:06:18.540Z,25.00
2022-11-27T11:06:51.500Z,26.70
2022-11-27T11:07:50.560Z,22.90
2022-11-27T11:08:50.488Z,23.60
2022-11-27T11:09:50.501Z,23.80
2022-11-27T11:10:50.470Z,23.50
2022-11-27T11:11:50.463Z,23.40
2022-11-27T11:12:50.446Z,23.90
2022-11-27T11:13:50.443Z,25.60
2022-11-27T11:14:50.444Z,26.60
2022-11-27T11:15:51.945Z,22.20
2022-11-27T11:16:50.441Z,22.90
2022-11-27T11:17:50.402Z,24.20
2022-11-27T11:18:50.404Z,24.20
2022-11-27T11:19:50.397Z,20.80
2022-11-27T11:20:50.364Z,24.10
2022-11-27T11:21:50.364Z,23.10
2022-11-27T11:22:50.346Z,26.60
2022-11-27T11:23:50.336Z,25.10
2022-11-27T11:24:50.345Z,23.30
2022-11-27T11:25:50.315Z,24.70
2022-11-27T11:26:50.305Z,24.70
2022-11-27T11:27:50.297Z,20.10
2022-11-27T11:28:50.277Z,27.10
2022-11-27T11:29:50.295Z,23.00
2022-11-27T11:30:50.258Z,24.20
2022-11-27T11:31:50.310Z,23.60
2022-11-27T11:32:50.239Z,23.80
2022-11-27T11:33:50.247Z,26.30
2022-11-27T11:34:50.237Z,25.30
2022-11-27T11:35:50.218Z,23.00
2022-11-27T11:36:50.200Z,24.00
2022-11-27T11:37:50.190Z,22.30
2022-11-27T11:38:50.188Z,22.80
2022-11-27T11:39:50.190Z,26.30
2022-11-27T11:40:50.157Z,21.10
2022-11-27T11:41:50.152Z,21.20
2022-11-27T11:42:50.139Z,25.00
2022-11-27T11:43:50.132Z,25.20
2022-11-27T11:44:50.131Z,24.50
2022-11-27T11:45:50.161Z,26.10
2022-11-27T11:46:50.093Z,21.20
2022-11-27T11:47:50.095Z,20.80
2022-11-27T11:48:50.074Z,20.10
2022-11-27T11:49:50.092Z,20.40
2022-11-27T11:50:50.053Z,24.10
2022-11-27T11:51:50.044Z,21.30
2022-11-27T11:52:50.042Z,22.50
2022-11-27T11:53:50.028Z,22.30
2022-11-27T11:54:50.044Z,25.70
2022-11-27T11:55:50.005Z,22.60
2022-11-27T11:56:49.994Z,22.90
2022-11-27T11:57:49.986Z,22.60
2022-11-27T11:58:49.976Z,19.10
2022-11-27T11:59:49.993Z,24.80
2022-11-27T12:01:25.909Z,28.40
2022-11-27T12:01:50.990Z,22.80
2022-11-27T12:02:49.947Z,23.80
2022-11-27T12:03:49.924Z,22.70
2022-11-27T12:04:50.039Z,21.50
2022-11-27T12:05:49.899Z,20.10
2022-11-27T12:06:49.895Z,20.10
2022-11-27T12:07:52.459Z,24.00
2022-11-27T12:08:49.878Z,19.00
2022-11-27T12:09:49.880Z,24.10
2022-11-27T12:10:49.857Z,21.60
2022-11-27T12:11:49.841Z,24.30
2022-11-27T12:12:49.830Z,22.80
2022-11-27T12:13:49.820Z,24.10
2022-11-27T12:14:49.830Z,19.00
2022-11-27T12:15:49.791Z,22.00
2022-11-27T12:16:49.838Z,19.70
2022-11-27T12:17:49.802Z,22.60
2022-11-27T12:18:49.772Z,19.80
2022-11-27T12:19:49.773Z,23.60
2022-11-27T12:20:49.749Z,18.20
2022-11-27T12:21:49.741Z,20.70
2022-11-27T12:22:49.734Z,17.80
2022-11-27T12:23:49.713Z,17.80
2022-11-27T12:24:49.723Z,19.20
2022-11-27T12:25:49.694Z,19.70
2022-11-27T12:26:49.704Z,24.70
2022-11-27T12:27:49.672Z,19.30
2022-11-27T12:28:53.176Z,16.30
2022-11-27T12:29:50.676Z,18.70
2022-11-27T12:30:49.644Z,18.30
2022-11-27T12:31:49.688Z,14.90
2022-11-27T12:32:49.637Z,17.50
2022-11-27T12:33:49.618Z,19.70
2022-11-27T12:34:49.626Z,18.10
2022-11-27T12:35:49.587Z,19.70
2022-11-27T12:36:49.584Z,22.20
2022-11-27T12:37:49.567Z,26.80
2022-11-27T12:38:49.558Z,19.10
2022-11-27T12:39:49.558Z,23.00
2022-11-27T12:40:49.539Z,17.90
2022-11-27T12:41:49.526Z,18.50
2022-11-27T12:42:49.529Z,16.60
2022-11-27T12:43:49.512Z,18.20
2022-11-27T12:44:49.518Z,24.90
2022-11-27T12:45:49.656Z,24.00
2022-11-27T12:46:49.581Z,17.90
2022-11-27T12:47:49.460Z,25.90
2022-11-27T12:48:49.461Z,26.70
2022-11-27T12:49:49.461Z,25.30
2022-11-27T12:50:49.443Z,23.70
2022-11-27T12:51:49.429Z,22.10
2022-11-27T12:52:49.413Z,22.40